Time;durP1;ratioP1;P1;durP2;ratioP2;P2;SDS_P1;SDS_P2;PMS_P1;PMS_P2;Temp;Humidity;BMP_temperature;BMP_pressure;BME280_temperature;BME280_humidity;BME280_pressure;Samples;Min_cycle;Max_cycle;Signal;HPM_P1;HPM_P2
2022/01/20 00:02:22;;;;;;;;;;;;;;;17.99;62.62;101671.88;4977406;28;2034;-34
2022/01/20 00:04:52;;;;;;;;;;;;;;;18.04;62.49;101682.25;4975526;28;1645;-33
2022/01/20 00:07:44;;;;;;;;;;;;;;;18.00;62.50;101670.03;4974952;28;1814;-33
2022/01/20 00:26:55;;;;;;;;;;;;;;;17.87;62.70;101660.19;4983574;28;1640;-34
2022/01/20 00:29:28;;;;;;;;;;;;;;;17.85;62.92;101670.16;4983769;28;1624;-33
2022/01/20 00:32:10;;;;;;;;;;;;;;;17.89;62.66;101654.75;4975172;28;1874;-33
2022/01/20 00:37:19;;;;;;;;;;;;;;;17.89;62.75;101655.59;4988830;28;3062;-33
2022/01/20 00:39:52;;;;;;;;;;;;;;;17.80;62.54;101645.50;4982439;28;1667;-34
2022/01/20 00:42:21;;;;;;;;;;;;;;;17.84;62.35;101647.03;4977910;28;1898;-33
2022/01/20 00:44:48;;;;;;;;;;;;;;;17.87;62.14;101641.47;4980039;28;996;-34
2022/01/20 00:47:31;;;;;;;;;;;;;;;17.86;62.22;101647.78;4981774;28;1601;-34
2022/01/20 00:49:58;;;;;;;;;;;;;;;17.84;62.08;101641.66;4982720;28;1623;-33
2022/01/20 00:52:25;;;;;;;;;;;;;;;17.89;62.21;101644.91;4985976;28;1608;-34
2022/01/20 00:57:40;;;;;;;;;;;;;;;17.88;61.96;101632.47;4987041;28;2856;-33
2022/01/20 01:00:09;;;;;;;;;;;;;;;17.88;61.87;101615.56;4977719;28;1016;-33
2022/01/20 01:02:36;;;;;;;;;;;;;;;17.86;62.29;101628.19;4974124;28;1972;-34
2022/01/20 01:05:04;;;;;;;;;;;;;;;17.81;62.01;101620.47;4989298;28;1976;-33
2022/01/20 01:10:41;;;;;;;;;;;;;;;17.74;62.00;101603.13;5129496;27;1408;-37
2022/01/20 01:13:12;;;;;;;;;;;;;;;17.68;62.50;101577.63;5111653;28;1983;-37
2022/01/20 01:15:44;;;;;;;;;;;;;;;17.72;62.31;101588.13;5110175;28;1566;-37
2022/01/20 01:21:13;;;;;;;;;;;;;;;17.81;62.02;101572.31;5114158;28;1733;-37
2022/01/20 01:23:51;;;;;;;;;;;;;;;17.90;61.85;101581.53;5117941;28;1756;-37
2022/01/20 01:26:27;;;;;;;;;;;;;;;18.14;60.57;101572.72;5120840;27;1797;-37
2022/01/20 01:28:59;;;;;;;;;;;;;;;18.21;59.92;101568.66;5121744;27;1982;-37
2022/01/20 01:31:35;;;;;;;;;;;;;;;18.25;60.48;101546.88;5094413;28;1781;-37
2022/01/20 01:34:09;;;;;;;;;;;;;;;18.28;60.52;101544.00;5115508;28;1143;-37
2022/01/20 01:37:05;;;;;;;;;;;;;;;18.31;60.64;101542.06;5116951;27;1768;-37
2022/01/20 01:39:32;;;;;;;;;;;;;;;18.37;59.58;101549.63;5127286;28;1016;-37
2022/01/20 01:42:05;;;;;;;;;;;;;;;18.32;59.89;101533.03;5112358;28;1459;-37
2022/01/20 01:44:34;;;;;;;;;;;;;;;18.33;60.24;101524.06;5122910;28;1440;-37
2022/01/20 01:47:10;;;;;;;;;;;;;;;18.31;60.15;101526.00;5128351;27;1413;-37
2022/01/20 01:49:39;;;;;;;;;;;;;;;18.29;59.52;101518.06;5118091;28;1909;-37
2022/01/20 01:52:05;;;;;;;;;;;;;;;18.28;60.00;101506.50;5114129;28;2040;-37
2022/01/20 01:54:32;;;;;;;;;;;;;;;18.25;59.94;101522.78;5130938;28;1265;-37
2022/01/20 01:57:09;;;;;;;;;;;;;;;18.21;60.16;101521.31;5109519;28;1495;-37
2022/01/20 01:59:36;;;;;;;;;;;;;;;18.15;60.20;101513.72;5102897;28;2305;-37
2022/01/20 02:02:08;;;;;;;;;;;;;;;18.13;60.59;101517.50;5107736;28;1783;-37
2022/01/20 02:04:37;;;;;;;;;;;;;;;18.08;60.20;101512.44;5120645;28;1567;-37
2022/01/20 02:07:34;;;;;;;;;;;;;;;18.04;60.17;101501.09;5124220;27;1567;-37
2022/01/20 02:18:46;;;;;;;;;;;;;;;18.07;60.37;101481.31;5132435;27;1634;-37
2022/01/20 02:21:16;;;;;;;;;;;;;;;17.98;60.61;101464.09;5120858;27;1397;-37
2022/01/20 02:23:43;;;;;;;;;;;;;;;17.98;60.58;101476.63;5129307;27;1750;-37
2022/01/20 02:26:10;;;;;;;;;;;;;;;17.93;60.67;101470.75;5120571;27;1936;-37
2022/01/20 02:28:37;;;;;;;;;;;;;;;17.92;60.54;101474.38;5121984;27;1906;-37
2022/01/20 02:31:04;;;;;;;;;;;;;;;17.89;60.77;101467.44;5121429;27;1556;-37
2022/01/20 02:33:31;;;;;;;;;;;;;;;17.89;60.63;101468.28;5120050;27;1575;-37
2022/01/20 02:35:59;;;;;;;;;;;;;;;17.86;60.65;101447.09;5127309;27;1600;-37
2022/01/20 02:38:35;;;;;;;;;;;;;;;17.85;60.44;101460.59;5116405;27;1615;-37
2022/01/20 02:47:02;;;;;;;;;;;;;;;17.85;60.83;101445.41;5136281;27;1431;-37
2022/01/20 02:49:31;;;;;;;;;;;;;;;17.84;60.81;101443.69;5117820;27;1887;-37
2022/01/20 02:51:58;;;;;;;;;;;;;;;17.89;60.38;101451.38;5096463;28;1741;-38
2022/01/20 02:54:34;;;;;;;;;;;;;;;17.89;60.43;101435.34;5118444;27;1445;-37
2022/01/20 02:57:01;;;;;;;;;;;;;;;17.88;60.44;101439.81;5117436;27;1455;-37
2022/01/20 02:59:31;;;;;;;;;;;;;;;17.84;60.54;101411.56;5116891;27;1557;-37
2022/01/20 15:02:04;;;;;;;;;;;;;;;18.24;59.86;100902.69;5073845;28;1811;-36
2022/01/20 15:04:30;;;;;;;;;;;;;;;18.14;60.02;100904.41;5083479;28;1673;-35
2022/01/20 15:06:57;;;;;;;;;;;;;;;18.15;60.23;100906.13;5084983;28;1831;-35
2022/01/20 15:09:24;;;;;;;;;;;;;;;18.17;60.14;100888.13;5085884;28;1910;-36
2022/01/20 15:11:50;;;;;;;;;;;;;;;18.20;60.02;100887.00;5086739;28;1053;-34
2022/01/20 15:14:17;;;;;;;;;;;;;;;18.17;60.18;100887.28;5086857;28;2000;-35
2022/01/20 15:16:43;;;;;;;;;;;;;;;18.15;60.26;100898.09;5075933;28;1847;-35
2022/01/20 15:19:13;;;;;;;;;;;;;;;18.17;60.25;100893.47;5086688;28;1006;-35
2022/01/20 15:21:39;;;;;;;;;;;;;;;18.13;60.27;100889.34;5077682;28;1875;-34
2022/01/20 15:24:06;;;;;;;;;;;;;;;18.13;60.15;100886.66;5085311;28;1786;-35
2022/01/20 15:26:32;;;;;;;;;;;;;;;18.15;60.21;100887.38;5085441;28;1731;-36
2022/01/20 15:28:59;;;;;;;;;;;;;;;18.15;59.98;100894.56;5086354;28;1068;-35
2022/01/20 15:31:26;;;;;;;;;;;;;;;18.19;60.10;100906.72;5082268;28;1910;-36
2022/01/20 15:33:52;;;;;;;;;;;;;;;18.15;60.04;100890.06;5089127;28;1932;-34
2022/01/20 15:36:20;;;;;;;;;;;;;;;18.18;60.01;100895.16;5080529;28;1796;-35
2022/01/20 15:38:47;;;;;;;;;;;;;;;18.17;59.98;100881.91;5087305;28;1848;-35
2022/01/20 15:41:13;;;;;;;;;;;;;;;18.19;59.78;100886.16;5083763;28;1491;-35
2022/01/20 15:43:40;;;;;;;;;;;;;;;18.20;60.04;100869.09;5084642;28;1435;-34
2022/01/20 15:46:06;;;;;;;;;;;;;;;18.18;60.03;100879.09;5087748;28;1110;-36
2022/01/20 15:48:34;;;;;;;;;;;;;;;18.18;60.03;100880.94;5088408;28;1840;-34
2022/01/20 15:51:01;;;;;;;;;;;;;;;18.12;59.80;100887.63;5084153;28;1927;-35
2022/01/20 15:53:29;;;;;;;;;;;;;;;18.11;60.16;100883.28;5084096;28;1689;-35
2022/01/20 15:55:55;;;;;;;;;;;;;;;18.11;60.26;100893.97;5079392;28;1061;-35
2022/01/20 15:58:21;;;;;;;;;;;;;;;18.09;60.33;100886.06;5085115;28;1845;-34
2022/01/20 16:00:48;;;;;;;;;;;;;;;18.11;60.02;100882.44;5083695;28;1691;-35
2022/01/20 16:03:14;;;;;;;;;;;;;;;18.10;60.78;100886.91;5082408;28;1540;-32
2022/01/20 16:05:41;;;;;;;;;;;;;;;18.08;60.25;100883.50;5086029;28;1810;-33
2022/01/20 16:08:08;;;;;;;;;;;;;;;18.05;60.48;100878.44;5087727;28;1497;-33
2022/01/20 16:10:37;;;;;;;;;;;;;;;18.09;60.23;100874.53;5083694;28;1906;-33
2022/01/20 16:13:04;;;;;;;;;;;;;;;18.12;59.95;100874.25;5086290;28;1553;-33
2022/01/20 16:15:30;;;;;;;;;;;;;;;18.13;60.30;100870.59;5085601;28;1150;-34
2022/01/20 16:17:57;;;;;;;;;;;;;;;18.13;60.08;100875.97;5088027;28;1889;-35
2022/01/20 16:20:24;;;;;;;;;;;;;;;18.10;60.04;100870.84;5085472;28;1672;-34
2022/01/20 16:22:50;;;;;;;;;;;;;;;18.10;60.32;100860.16;5081573;28;1714;-36
2022/01/20 16:25:17;;;;;;;;;;;;;;;18.10;60.48;100857.47;5085681;28;1685;-36
2022/01/20 16:27:46;;;;;;;;;;;;;;;18.06;60.37;100859.56;5085299;28;1787;-35
2022/01/20 16:30:13;;;;;;;;;;;;;;;18.08;60.20;100854.06;5082608;28;1906;-35
2022/01/20 16:32:39;;;;;;;;;;;;;;;18.10;60.22;100854.78;5079171;28;1480;-35
2022/01/20 16:35:05;;;;;;;;;;;;;;;18.03;60.35;100859.81;5080554;28;1674;-35
2022/01/20 16:37:32;;;;;;;;;;;;;;;18.07;60.34;100865.78;5085138;28;1716;-35
2022/01/20 16:39:58;;;;;;;;;;;;;;;18.06;60.27;100853.34;5083578;28;1795;-34
2022/01/20 16:42:25;;;;;;;;;;;;;;;18.07;60.28;100865.78;5083896;28;1388;-35
2022/01/20 16:44:53;;;;;;;;;;;;;;;18.12;59.95;100874.25;5082974;28;1003;-35
2022/01/20 16:47:20;;;;;;;;;;;;;;;18.08;60.13;100859.44;5085973;28;1409;-35
2022/01/20 16:49:46;;;;;;;;;;;;;;;18.13;58.56;100846.53;5086564;28;1987;-37
2022/01/20 16:52:13;;;;;;;;;;;;;;;18.54;57.43;100844.84;5086735;28;1410;-35
2022/01/20 16:54:40;;;;;;;;;;;;;;;19.13;57.15;100839.88;5084304;28;1310;-36
2022/01/20 16:57:07;;;;;;;;;;;;;;;19.65;56.29;100851.31;5083840;28;1179;-36
2022/01/20 16:59:33;;;;;;;;;;;;;;;19.64;55.63;100846.94;5079756;28;1556;-35
2022/01/20 17:02:01;;;;;;;;;;;;;;;19.78;55.55;100843.06;5086774;28;1754;-35
2022/01/20 17:04:27;;;;;;;;;;;;;;;19.72;55.70;100844.47;5085844;28;1456;-36
2022/01/20 17:06:54;;;;;;;;;;;;;;;19.92;55.43;100828.38;5078015;28;2058;-35
2022/01/20 17:09:22;;;;;;;;;;;;;;;20.17;56.24;100829.66;5091182;28;1282;-34
2022/01/20 17:11:50;;;;;;;;;;;;;;;19.93;55.78;100830.06;5083885;28;1977;-34
2022/01/20 17:14:18;;;;;;;;;;;;;;;19.83;57.04;100828.22;5085286;28;1491;-34
2022/01/20 17:16:44;;;;;;;;;;;;;;;19.86;56.32;100832.47;5085568;28;1598;-33
2022/01/20 17:21:53;;;;;;;;;;;;;;;20.12;56.04;100823.88;5082957;28;1806;-37
2022/01/20 17:24:27;;;;;;;;;;;;;;;20.14;55.76;100836.16;5090551;28;1185;-34
2022/01/20 17:26:56;;;;;;;;;;;;;;;20.19;57.10;100812.44;5081853;28;1817;-34
2022/01/20 17:29:23;;;;;;;;;;;;;;;20.13;57.20;100821.03;5087578;28;1577;-35
2022/01/20 17:31:53;;;;;;;;;;;;;;;19.96;57.33;100825.28;5047809;28;1981;-35
2022/01/20 17:34:36;;;;;;;;;;;;;;;20.17;56.88;100825.13;5084863;28;1285;-36
2022/01/20 17:37:05;;;;;;;;;;;;;;;20.26;55.96;100820.75;5085725;28;1580;-34
2022/01/20 17:39:32;;;;;;;;;;;;;;;19.94;56.11;100810.31;5083020;28;1617;-35
2022/01/20 17:41:58;;;;;;;;;;;;;;;19.77;58.00;100818.03;5050260;28;1587;-34
2022/01/20 17:44:32;;;;;;;;;;;;;;;19.81;57.72;100811.41;5086771;28;1866;-35
2022/01/20 17:47:01;;;;;;;;;;;;;;;19.79;57.18;100802.66;5077479;28;1860;-34
2022/01/20 17:49:30;;;;;;;;;;;;;;;19.68;57.62;100800.09;5088130;28;1490;-34
2022/01/20 17:51:57;;;;;;;;;;;;;;;19.62;57.56;100816.75;5071115;28;1985;-34
2022/01/20 17:54:29;;;;;;;;;;;;;;;19.64;57.69;100820.97;5090854;28;1831;-33
2022/01/20 17:56:57;;;;;;;;;;;;;;;19.48;57.73;100805.41;5085034;28;1878;-34
2022/01/20 17:59:27;;;;;;;;;;;;;;;19.41;57.97;100804.25;5089910;28;1879;-34
2022/01/20 18:01:54;;;;;;;;;;;;;;;19.45;58.06;100811.03;5089024;28;1826;-33
2022/01/20 18:04:21;;;;;;;;;;;;;;;19.39;59.29;100795.50;5089122;28;1650;-35
2022/01/20 18:06:49;;;;;;;;;;;;;;;19.50;58.44;100796.34;5079992;28;1595;-35
2022/01/20 18:09:16;;;;;;;;;;;;;;;19.51;57.73;100803.44;5082816;28;1891;-34
2022/01/20 18:11:44;;;;;;;;;;;;;;;19.39;58.04;100811.59;5088846;28;1950;-34
2022/01/20 18:14:10;;;;;;;;;;;;;;;19.39;58.84;100814.25;5088933;28;1901;-34
2022/01/20 18:16:37;;;;;;;;;;;;;;;19.47;58.16;100800.16;5085668;28;1596;-34
2022/01/20 18:19:04;;;;;;;;;;;;;;;19.41;58.76;100804.25;5088634;28;1762;-34
2022/01/20 18:21:30;;;;;;;;;;;;;;;19.60;57.98;100787.34;5086788;28;1940;-33
2022/01/20 18:23:57;;;;;;;;;;;;;;;19.60;57.96;100802.63;5088397;28;1538;-34
2022/01/20 18:26:24;;;;;;;;;;;;;;;19.65;58.25;100817.28;5094301;28;1461;-35
2022/01/20 18:28:56;;;;;;;;;;;;;;;19.50;59.10;100812.44;5089785;28;1586;-34
2022/01/20 18:31:26;;;;;;;;;;;;;;;19.44;58.39;100814.72;5088134;28;1905;-34
2022/01/20 18:33:58;;;;;;;;;;;;;;;19.46;58.79;100812.75;5084396;28;1918;-34
2022/01/20 18:36:28;;;;;;;;;;;;;;;19.41;59.06;100806.94;5089201;28;1910;-34
2022/01/20 18:38:55;;;;;;;;;;;;;;;19.36;58.57;100809.19;5093048;28;1988;-34
2022/01/20 18:41:22;;;;;;;;;;;;;;;19.37;58.75;100826.97;5090627;28;1635;-34
2022/01/20 18:43:58;;;;;;;;;;;;;;;19.29;59.43;100802.66;5089554;28;1655;-34
2022/01/20 18:46:28;;;;;;;;;;;;;;;19.21;59.65;100814.06;5087381;28;1285;-34
2022/01/20 18:48:54;;;;;;;;;;;;;;;19.21;59.62;100830.16;5088664;28;2046;-34
2022/01/20 18:51:21;;;;;;;;;;;;;;;19.08;59.23;100814.31;5085967;28;1902;-34
2022/01/20 18:53:47;;;;;;;;;;;;;;;19.05;59.69;100816.41;5089962;28;1561;-34
2022/01/20 18:56:14;;;;;;;;;;;;;;;18.99;59.40;100808.91;5086840;28;1654;-35
2022/01/20 18:58:44;;;;;;;;;;;;;;;19.00;58.96;100811.47;5083673;28;1731;-35
2022/01/20 19:01:12;;;;;;;;;;;;;;;19.03;59.84;100810.34;5085087;28;1753;-34
2022/01/20 19:03:40;;;;;;;;;;;;;;;19.11;59.55;100823.06;5087279;28;1659;-34
2022/01/20 19:06:07;;;;;;;;;;;;;;;19.11;59.50;100823.06;5084833;28;1522;-34
2022/01/20 19:08:33;;;;;;;;;;;;;;;19.02;59.75;100820.22;5091999;28;1749;-34
2022/01/20 19:11:00;;;;;;;;;;;;;;;18.97;60.30;100821.59;5086440;28;1902;-34
2022/01/20 19:13:30;;;;;;;;;;;;;;;18.93;59.92;100825.53;5082561;28;1647;-33
2022/01/20 19:15:57;;;;;;;;;;;;;;;18.92;59.61;100823.81;5089951;28;1368;-34
2022/01/20 19:18:23;;;;;;;;;;;;;;;18.86;58.97;100814.47;5090756;28;1578;-34
2022/01/20 19:20:51;;;;;;;;;;;;;;;18.87;59.51;100821.53;5089407;28;1678;-34
2022/01/20 19:23:19;;;;;;;;;;;;;;;18.92;59.21;100823.81;5091562;28;1567;-34
2022/01/20 19:25:46;;;;;;;;;;;;;;;18.98;58.68;100815.22;5088389;28;1429;-35
2022/01/20 19:28:15;;;;;;;;;;;;;;;19.02;58.99;100814.84;5086256;28;1534;-34
2022/01/20 19:30:41;;;;;;;;;;;;;;;19.04;58.66;100810.22;5085887;28;1974;-33
2022/01/20 19:33:08;;;;;;;;;;;;;;;19.08;58.84;100814.31;5088594;28;1508;-34
2022/01/20 19:35:34;;;;;;;;;;;;;;;19.09;58.64;100815.16;5084578;28;1487;-34
2022/01/20 19:38:03;;;;;;;;;;;;;;;19.12;57.95;100814.03;5083356;28;1562;-34
2022/01/20 19:40:29;;;;;;;;;;;;;;;19.16;58.80;100815.44;5081367;28;1568;-34
2022/01/20 19:42:56;;;;;;;;;;;;;;;19.15;58.37;100805.72;5087194;28;1884;-34
2022/01/20 19:45:22;;;;;;;;;;;;;;;19.17;58.59;100809.97;5088294;28;1284;-34
2022/01/20 19:47:49;;;;;;;;;;;;;;;19.20;58.75;100808.84;5088007;28;1421;-35
2022/01/20 19:50:16;;;;;;;;;;;;;;;19.21;58.18;100811.38;5086520;28;1318;-34
2022/01/20 19:52:43;;;;;;;;;;;;;;;19.26;57.95;100811.00;5090762;28;1914;-39
2022/01/20 19:55:13;;;;;;;;;;;;;;;19.28;57.76;100820.59;5092046;28;1588;-39
2022/01/20 19:57:39;;;;;;;;;;;;;;;19.33;57.18;100822.84;5089774;28;1413;-39
2022/01/20 20:00:07;;;;;;;;;;;;;;;19.54;57.25;100820.09;5093480;28;1402;-40
2022/01/20 20:02:33;;;;;;;;;;;;;;;19.48;57.16;100818.81;5092577;28;1574;-39
2022/01/20 20:05:00;;;;;;;;;;;;;;;19.46;57.55;100811.91;5092767;28;1589;-39
2022/01/20 20:07:26;;;;;;;;;;;;;;;19.41;57.38;100820.34;5091842;28;1354;-39
2022/01/20 20:09:53;;;;;;;;;;;;;;;19.39;57.39;100816.09;5090224;28;1561;-39
2022/01/20 20:12:25;;;;;;;;;;;;;;;19.36;57.67;100801.16;5091404;28;1973;-38
2022/01/20 20:14:54;;;;;;;;;;;;;;;19.35;57.54;100803.97;5092289;28;1291;-39
2022/01/20 20:17:21;;;;;;;;;;;;;;;19.37;57.48;100821.59;5089964;28;1559;-39
2022/01/20 20:19:48;;;;;;;;;;;;;;;19.33;58.50;100822.00;5091441;28;1362;-39
2022/01/20 20:22:29;;;;;;;;;;;;;;;19.41;58.22;100804.25;5090175;28;1529;-34
2022/01/20 20:25:05;;;;;;;;;;;;;;;19.37;57.22;100808.19;5091298;28;1378;-33
2022/01/20 20:27:37;;;;;;;;;;;;;;;19.35;58.15;100793.22;5089411;28;1522;-35
2022/01/20 20:30:04;;;;;;;;;;;;;;;19.32;57.68;100809.56;5091360;28;1372;-34
2022/01/20 20:32:31;;;;;;;;;;;;;;;19.32;57.29;100806.91;5090037;28;1991;-37
2022/01/20 20:34:57;;;;;;;;;;;;;;;19.33;57.68;100811.28;5091589;28;1552;-34
2022/01/20 20:37:24;;;;;;;;;;;;;;;19.34;57.54;100805.81;5087857;28;1403;-34
2022/01/20 20:39:52;;;;;;;;;;;;;;;19.36;58.36;100809.19;5090060;28;1461;-35
2022/01/20 20:42:18;;;;;;;;;;;;;;;19.37;57.65;100786.72;5087326;28;1711;-34
2022/01/20 20:44:50;;;;;;;;;;;;;;;19.36;57.94;100800.28;5087331;28;1178;-34
2022/01/20 20:47:18;;;;;;;;;;;;;;;19.37;57.20;100780.53;5087577;28;1700;-34
2022/01/20 20:49:46;;;;;;;;;;;;;;;19.35;57.08;100788.72;5091464;28;1428;-34
2022/01/20 20:52:13;;;;;;;;;;;;;;;19.36;57.80;100795.78;5089424;28;1906;-34
2022/01/20 20:54:40;;;;;;;;;;;;;;;19.31;58.17;100787.28;5088973;28;1550;-34
2022/01/20 20:57:08;;;;;;;;;;;;;;;19.36;57.23;100798.47;5091576;28;2028;-34
2022/01/20 20:59:41;;;;;;;;;;;;;;;19.35;57.03;100794.06;5076807;28;1584;-34
2022/01/20 21:02:22;;;;;;;;;;;;;;;19.39;57.23;100797.34;5081168;28;1501;-33
2022/01/20 21:04:55;;;;;;;;;;;;;;;19.37;57.72;100789.41;5078463;28;1470;-34
2022/01/20 21:07:28;;;;;;;;;;;;;;;19.33;57.44;100793.38;5091124;28;1519;-34
2022/01/20 21:09:57;;;;;;;;;;;;;;;19.28;58.08;100771.50;5089519;28;1553;-34
2022/01/20 21:12:27;;;;;;;;;;;;;;;19.32;57.79;100789.00;5091482;28;1902;-34
2022/01/20 21:14:55;;;;;;;;;;;;;;;19.38;56.91;100782.25;5084540;28;1476;-35
2022/01/20 21:17:21;;;;;;;;;;;;;;;19.34;57.54;100784.34;5080558;28;1578;-34
2022/01/20 21:19:48;;;;;;;;;;;;;;;19.26;57.90;100790.38;5082201;28;1705;-34
2022/01/20 21:22:16;;;;;;;;;;;;;;;19.17;58.14;100793.03;5081132;28;1455;-34
2022/01/20 21:24:43;;;;;;;;;;;;;;;19.14;58.73;100807.56;5079133;28;2568;-34
2022/01/20 21:27:10;;;;;;;;;;;;;;;19.10;58.99;100795.41;5089319;28;1296;-35
2022/01/20 21:29:38;;;;;;;;;;;;;;;19.12;58.81;100793.44;5091048;28;2053;-34
2022/01/20 21:32:05;;;;;;;;;;;;;;;19.05;58.33;100803.00;5088325;28;1902;-34
2022/01/20 21:34:32;;;;;;;;;;;;;;;18.98;59.57;100800.03;5087223;28;1647;-34
2022/01/20 21:36:58;;;;;;;;;;;;;;;18.91;59.92;100798.84;5087095;28;1469;-35
2022/01/20 21:39:26;;;;;;;;;;;;;;;18.87;59.24;100789.38;5084956;28;1554;-35
2022/01/20 21:41:52;;;;;;;;;;;;;;;18.87;59.13;100794.75;5086068;28;1735;-35
2022/01/20 21:44:19;;;;;;;;;;;;;;;18.81;60.02;100780.06;5085871;28;1473;-34
2022/01/20 21:46:45;;;;;;;;;;;;;;;18.79;59.65;100786.50;5081791;28;1739;-35
2022/01/20 21:49:12;;;;;;;;;;;;;;;18.78;60.58;100795.50;5084212;28;1383;-35
2022/01/20 21:51:38;;;;;;;;;;;;;;;18.73;60.14;100776.31;5086674;28;1969;-35
2022/01/20 21:54:05;;;;;;;;;;;;;;;18.74;59.86;100784.22;5085115;28;1547;-35
2022/01/20 21:56:34;;;;;;;;;;;;;;;18.72;60.60;100771.94;5084058;28;1291;-34
2022/01/20 21:59:01;;;;;;;;;;;;;;;18.71;60.49;100772.94;5083037;28;1484;-35
2022/01/20 22:01:28;;;;;;;;;;;;;;;18.72;60.67;100753.19;5086633;28;1422;-34
2022/01/20 22:03:55;;;;;;;;;;;;;;;18.81;60.89;100774.69;5090927;28;1961;-34
2022/01/20 22:06:22;;;;;;;;;;;;;;;18.86;60.63;100771.59;5089115;28;1466;-35
2022/01/20 22:08:48;;;;;;;;;;;;;;;18.92;60.28;100779.13;5087326;28;2088;-35
2022/01/20 22:11:15;;;;;;;;;;;;;;;18.95;60.11;100786.88;5081487;28;10634;-35
2022/01/20 22:13:44;;;;;;;;;;;;;;;19.08;60.29;100798.22;5049505;28;1902;-34
2022/01/20 22:16:11;;;;;;;;;;;;;;;19.09;60.75;100791.03;5047602;28;1467;-34
2022/01/20 22:18:38;;;;;;;;;;;;;;;19.08;60.72;100794.72;5051298;28;2160;-34
2022/01/20 22:21:05;;;;;;;;;;;;;;;19.05;59.96;100786.94;5047735;28;1614;-34
2022/01/20 22:23:32;;;;;;;;;;;;;;;19.03;60.76;100773.66;5050043;28;1503;-34
2022/01/20 22:26:01;;;;;;;;;;;;;;;18.97;60.17;100768.00;5051818;28;1374;-35
2022/01/20 22:28:28;;;;;;;;;;;;;;;18.91;60.74;100773.91;5052097;28;1639;-35
2022/01/20 22:30:56;;;;;;;;;;;;;;;18.84;60.20;100769.09;5050449;28;1393;-34
2022/01/20 22:33:22;;;;;;;;;;;;;;;18.81;61.18;100773.84;5049600;28;1984;-34
2022/01/20 22:35:49;;;;;;;;;;;;;;;18.74;60.59;100768.16;5050375;28;1619;-35
2022/01/20 22:38:16;;;;;;;;;;;;;;;18.74;60.59;100756.56;5049087;28;1430;-34
2022/01/20 22:40:43;;;;;;;;;;;;;;;18.69;60.89;100749.78;5049795;28;1792;-34
2022/01/20 22:43:10;;;;;;;;;;;;;;;18.69;61.52;100752.47;5049571;28;1491;-34
2022/01/20 22:45:37;;;;;;;;;;;;;;;18.68;61.46;100750.78;5050799;28;1450;-35
2022/01/20 22:48:06;;;;;;;;;;;;;;;18.67;61.33;100767.00;5047805;28;1595;-35
2022/01/20 22:50:33;;;;;;;;;;;;;;;18.65;61.74;100785.88;5049365;28;1628;-35
2022/01/20 22:52:59;;;;;;;;;;;;;;;18.59;61.58;100770.31;5049167;28;1906;-35
2022/01/20 22:55:26;;;;;;;;;;;;;;;18.54;60.22;100761.81;5047817;28;1553;-34
2022/01/20 22:57:52;;;;;;;;;;;;;;;18.54;61.12;100755.63;5042936;28;1403;-36
2022/01/20 23:00:21;;;;;;;;;;;;;;;18.51;60.38;100756.75;5044132;28;1172;-35
2022/01/20 23:02:49;;;;;;;;;;;;;;;18.49;61.37;100770.28;5039537;28;1973;-35
2022/01/20 23:05:16;;;;;;;;;;;;;;;18.43;61.69;100770.78;5045108;28;1736;-34
2022/01/20 23:07:43;;;;;;;;;;;;;;;18.40;61.75;100767.53;5047105;28;1508;-34
2022/01/20 23:10:11;;;;;;;;;;;;;;;18.38;62.06;100766.81;5047017;28;1891;-34
2022/01/20 23:12:38;;;;;;;;;;;;;;;18.37;61.81;100751.75;5045967;28;1977;-35
2022/01/20 23:15:08;;;;;;;;;;;;;;;18.33;61.42;100750.31;5046017;28;1037;-35
2022/01/20 23:17:37;;;;;;;;;;;;;;;18.32;61.44;100745.91;5053305;28;1958;-34
2022/01/20 23:22:50;;;;;;;;;;;;;;;18.31;62.05;100750.44;5042369;28;1752;-34
2022/01/20 23:25:18;;;;;;;;;;;;;;;18.29;61.76;100755.91;5046432;28;1672;-35
2022/01/20 23:27:45;;;;;;;;;;;;;;;18.33;62.45;100748.47;5050282;28;1748;-34
2022/01/20 23:30:12;;;;;;;;;;;;;;;18.28;62.26;100751.56;5043837;28;1072;-35
2022/01/20 23:32:38;;;;;;;;;;;;;;;18.42;62.09;100752.19;5040407;28;1910;-35
2022/01/20 23:35:05;;;;;;;;;;;;;;;18.46;62.24;100742.91;5043195;28;1597;-35
2022/01/20 23:37:32;;;;;;;;;;;;;;;18.44;62.07;100752.91;5044044;28;1577;-35
2022/01/20 23:40:00;;;;;;;;;;;;;;;18.39;61.84;100755.13;5044977;28;2131;-35
2022/01/20 23:42:37;;;;;;;;;;;;;;;18.38;62.17;100748.06;5048939;28;1566;-36
2022/01/20 23:45:18;;;;;;;;;;;;;;;18.40;62.97;100749.66;5045390;28;1070;-35
2022/01/20 23:50:28;;;;;;;;;;;;;;;18.45;62.87;100773.34;5049546;28;1537;-34
2022/01/20 23:52:55;;;;;;;;;;;;;;;18.39;62.97;100764.00;5047484;28;1906;-35
2022/01/20 23:55:23;;;;;;;;;;;;;;;18.42;62.95;100770.91;5048620;28;1552;-34
2022/01/20 23:57:49;;;;;;;;;;;;;;;18.38;62.78;100772.16;5045026;28;1613;-34
